Time;durP1;ratioP1;P1;durP2;ratioP2;P2;SDS_P1;SDS_P2;PMS_P1;PMS_P2;Temp;Humidity;BMP_temperature;BMP_pressure;BME280_temperature;BME280_humidity;BME280_pressure;Samples;Min_cycle;Max_cycle;Signal;HPM_P1;HPM_P2
2022/04/23 00:00:54;;;;;;;9.97;7.20;;;;;;;15.81;61.47;100261.88;5086490;28;20970;-61
2022/04/23 00:03:21;;;;;;;11.68;7.22;;;;;;;15.98;60.85;100258.69;5086733;28;20781;-62
2022/04/23 00:05:48;;;;;;;9.50;6.40;;;;;;;16.21;60.04;100261.59;5086903;28;20434;-61
2022/04/23 00:09:56;;;;;;;10.15;5.93;;;;;;;15.91;60.41;100282.78;5118299;27;20937;-61
2022/04/23 00:12:25;;;;;;;8.13;6.17;;;;;;;15.98;60.47;100280.88;5087233;28;20410;-61
2022/04/23 00:14:53;;;;;;;9.25;6.00;;;;;;;15.86;61.09;100283.44;5086814;28;20876;-61
2022/04/23 00:17:20;;;;;;;9.27;5.82;;;;;;;16.09;60.59;100279.38;5086814;28;20414;-62
2022/04/23 00:19:47;;;;;;;8.00;5.80;;;;;;;16.30;60.23;100278.19;5087060;28;20441;-61
2022/04/23 00:22:15;;;;;;;9.68;5.90;;;;;;;16.41;60.22;100277.47;5087275;28;20414;-62
2022/04/23 00:26:55;;;;;;;7.30;5.25;;;;;;;16.38;60.39;100279.75;5121933;27;20400;-62
2022/04/23 00:29:22;;;;;;;7.13;5.50;;;;;;;16.39;60.59;100271.50;5107304;28;20482;-61
2022/04/23 00:31:50;;;;;;;7.83;5.57;;;;;;;16.37;60.74;100260.22;5107314;28;20489;-61
2022/04/23 00:34:17;;;;;;;8.68;5.28;;;;;;;16.11;61.34;100239.84;5107482;28;20487;-61
2022/04/23 00:39:51;;;;;;;8.85;5.03;;;;;;;16.22;60.93;100257.03;5118045;27;20780;-61
2022/04/23 00:42:18;;;;;;;5.20;3.95;;;;;;;16.14;60.82;100258.16;5086981;28;20463;-61
2022/04/23 00:44:45;;;;;;;6.50;4.20;;;;;;;16.16;60.73;100248.03;5087182;28;20418;-61
2022/04/23 00:47:12;;;;;;;6.22;4.00;;;;;;;15.94;61.27;100241.44;5087134;28;20423;-62
2022/04/23 00:49:39;;;;;;;7.82;4.35;;;;;;;15.95;61.41;100230.50;5086768;28;20469;-60
2022/04/23 00:52:07;;;;;;;6.55;4.20;;;;;;;15.91;61.32;100232.00;5086397;28;20414;-61
2022/04/23 00:56:59;;;;;;;7.18;3.85;;;;;;;15.81;61.53;100237.81;5118324;27;20406;-61
2022/04/23 00:59:28;;;;;;;6.47;3.85;;;;;;;15.88;61.01;100243.09;5087234;28;20445;-62
2022/04/23 01:01:55;;;;;;;6.15;3.80;;;;;;;15.78;61.19;100246.28;5086841;28;20476;-62
2022/04/23 01:04:22;;;;;;;7.10;3.90;;;;;;;15.83;61.25;100242.97;5087091;28;20445;-61
2022/04/23 01:06:49;;;;;;;5.07;3.20;;;;;;;15.77;61.02;100247.31;5087045;28;20442;-62
2022/04/23 01:09:17;;;;;;;5.95;3.10;;;;;;;15.72;61.03;100254.28;5087026;28;20405;-62
2022/04/23 01:11:44;;;;;;;5.65;2.90;;;;;;;15.70;61.26;100245.66;5086956;28;20438;-61
2022/04/23 01:15:04;;;;;;;4.68;2.67;;;;;;;15.72;61.06;100247.13;5118352;27;20402;-62
2022/04/23 01:20:57;;;;;;;3.70;2.40;;;;;;;15.67;60.99;100238.91;5118340;27;20409;-61
2022/04/23 01:23:24;;;;;;;4.45;2.70;;;;;;;15.58;61.14;100238.34;5087290;28;20506;-61
2022/04/23 01:25:52;;;;;;;4.70;2.40;;;;;;;15.54;61.35;100241.66;5086908;28;20446;-62
2022/04/23 01:28:21;;;;;;;4.30;2.50;;;;;;;15.54;61.25;100239.81;5087150;28;20508;-61
2022/04/23 01:30:49;;;;;;;2.78;2.40;;;;;;;15.48;61.79;100222.81;5087125;28;20445;-61
2022/04/23 01:33:16;;;;;;;5.10;2.63;;;;;;;15.20;62.32;100220.47;5087160;28;20453;-61
2022/04/23 01:35:43;;;;;;;4.63;2.80;;;;;;;15.22;62.51;100230.94;5086731;28;20444;-61
2022/04/23 01:38:12;;;;;;;4.50;2.67;;;;;;;15.27;62.23;100221.25;5086702;28;20402;-61
2022/04/23 01:40:39;;;;;;;4.77;2.93;;;;;;;15.27;62.14;100231.94;5086532;28;20927;-61
2022/04/23 01:43:08;;;;;;;4.47;2.78;;;;;;;15.32;62.03;100230.47;5086581;28;20424;-61
2022/04/23 01:45:35;;;;;;;6.18;3.03;;;;;;;15.31;62.18;100229.66;5086512;28;20417;-61
2022/04/23 01:48:02;;;;;;;5.40;2.72;;;;;;;15.29;62.25;100229.88;5086471;28;20414;-61
2022/04/23 01:50:29;;;;;;;4.30;2.50;;;;;;;15.32;62.09;100228.63;5086742;28;20406;-61
2022/04/23 01:52:56;;;;;;;4.72;2.92;;;;;;;15.31;62.49;100223.50;5086384;28;20416;-60
2022/04/23 01:59:10;;;;;;;3.55;2.70;;;;;;;15.32;62.59;100225.13;5118336;27;20402;-60
2022/04/23 02:01:37;;;;;;;4.25;2.92;;;;;;;15.30;62.37;100222.66;5087521;28;20441;-61
2022/04/23 02:04:06;;;;;;;5.57;3.00;;;;;;;15.32;62.33;100217.94;5087059;28;20414;-62
2022/04/23 02:06:34;;;;;;;5.70;3.40;;;;;;;15.29;62.64;100229.88;5087129;28;20440;-61
2022/04/23 02:09:01;;;;;;;3.83;2.85;;;;;;;15.29;62.54;100221.84;5086778;28;20418;-61
2022/04/23 02:11:28;;;;;;;4.60;3.00;;;;;;;15.32;62.64;100217.94;5086726;28;20911;-62
2022/04/23 02:13:55;;;;;;;5.22;3.25;;;;;;;15.29;62.11;100216.53;5086757;28;20413;-61
2022/04/23 02:16:25;;;;;;;4.88;3.20;;;;;;;15.28;62.31;100222.88;5086752;28;20449;-62
2022/04/23 02:18:52;;;;;;;3.95;3.13;;;;;;;15.30;62.80;100217.31;5086525;28;20541;-61
2022/04/23 02:21:19;;;;;;;5.90;3.22;;;;;;;15.32;62.85;100212.59;5086661;28;20449;-61
2022/04/23 02:23:47;;;;;;;6.28;3.30;;;;;;;15.32;62.96;100214.44;5086481;28;20417;-61
2022/04/23 02:26:14;;;;;;;8.43;4.87;;;;;;;15.29;62.82;100215.72;5086478;28;20915;-61
2022/04/23 02:28:41;;;;;;;12.57;6.43;;;;;;;15.30;62.26;100228.00;5086467;28;20969;-61
2022/04/23 02:31:08;;;;;;;4.32;3.13;;;;;;;15.26;61.84;100224.94;5086717;28;20429;-61
2022/04/23 02:35:08;;;;;;;7.70;5.65;;;;;;;15.29;62.04;100221.84;5118271;27;20784;-62
2022/04/23 02:37:35;;;;;;;7.17;6.37;;;;;;;15.29;61.77;100226.38;5086870;28;20410;-62
2022/04/23 02:40:03;;;;;;;5.13;3.53;;;;;;;15.28;62.17;100220.22;5086831;28;20500;-62
2022/04/23 02:42:30;;;;;;;7.03;6.30;;;;;;;15.25;62.43;100225.16;5086856;28;20413;-61
2022/04/23 02:45:01;;;;;;;13.90;12.90;;;;;;;15.27;62.29;100231.94;5087087;28;20421;-62
2022/04/23 02:47:28;;;;;;;5.82;5.22;;;;;;;15.27;62.24;100220.44;5086728;28;20422;-61
2022/04/23 02:49:55;;;;;;;5.35;4.53;;;;;;;15.25;62.48;100225.16;5087028;28;20438;-62
2022/04/23 02:52:23;;;;;;;7.72;6.05;;;;;;;15.22;62.25;100234.41;5086634;28;20425;-61
2022/04/23 02:56:19;;;;;;;7.55;6.10;;;;;;;15.13;62.73;100225.03;5118295;27;20404;-61
2022/04/23 02:58:46;;;;;;;6.07;5.45;;;;;;;15.18;62.70;100221.69;5086912;28;20517;-61
2022/04/23 03:02:47;;;;;;;8.60;6.60;;;;;;;15.15;62.65;100217.63;5118352;27;20398;-61
2022/04/23 03:05:15;;;;;;;8.18;5.95;;;;;;;15.17;62.56;100223.56;5086935;28;20418;-62
2022/04/23 03:07:42;;;;;;;8.48;5.60;;;;;;;15.18;62.41;100217.19;5087255;28;20415;-61
2022/04/23 03:11:14;;;;;;;31.88;29.33;;;;;;;15.16;62.54;100219.25;5118285;27;20394;-61
2022/04/23 03:13:41;;;;;;;24.88;22.70;;;;;;;15.17;62.71;100222.75;5087179;28;20942;-61
2022/04/23 03:16:08;;;;;;;37.70;34.45;;;;;;;15.18;62.60;100227.88;5087056;28;20416;-61
2022/04/23 03:18:35;;;;;;;30.45;27.83;;;;;;;15.19;62.53;100226.00;5086654;28;20414;-60
2022/04/23 03:21:02;;;;;;;37.10;33.95;;;;;;;15.18;62.60;100235.03;5086924;28;20444;-61
2022/04/23 03:23:29;;;;;;;16.00;14.25;;;;;;;15.19;62.67;100231.34;5086700;28;20438;-61
2022/04/23 03:25:56;;;;;;;12.10;10.43;;;;;;;15.20;62.96;100225.81;5086989;28;20449;-60
2022/04/23 03:28:24;;;;;;;9.73;8.05;;;;;;;15.22;62.71;100222.94;5086533;28;20492;-62
2022/04/23 03:30:51;;;;;;;16.52;14.00;;;;;;;15.25;62.85;100230.50;5086763;28;20457;-61
2022/04/23 03:33:18;;;;;;;10.77;8.57;;;;;;;15.22;62.83;100229.09;5086506;28;20489;-61
2022/04/23 03:35:45;;;;;;;7.03;5.60;;;;;;;15.28;62.38;100235.41;5086468;28;20414;-61
2022/04/23 03:38:13;;;;;;;6.55;5.25;;;;;;;15.31;62.33;100229.66;5086480;28;20904;-61
2022/04/23 03:40:40;;;;;;;9.32;6.50;;;;;;;15.10;62.96;100220.09;5086793;28;20445;-61
2022/04/23 03:43:07;;;;;;;7.30;5.18;;;;;;;14.96;63.63;100231.84;5086747;28;20585;-61
2022/04/23 03:45:36;;;;;;;9.38;5.95;;;;;;;15.13;63.34;100238.38;5086663;28;20410;-61
2022/04/23 03:48:03;;;;;;;8.60;6.25;;;;;;;15.23;62.88;100240.56;5086288;28;20505;-61
2022/04/23 03:50:30;;;;;;;11.70;10.50;;;;;;;15.27;63.17;100234.59;5086128;28;20426;-61
2022/04/23 03:52:57;;;;;;;12.45;11.20;;;;;;;15.24;62.76;100240.38;5086479;28;20410;-61
2022/04/23 03:55:25;;;;;;;8.85;6.60;;;;;;;15.29;62.74;100235.22;5086417;28;20461;-61
2022/04/23 03:57:54;;;;;;;7.93;6.32;;;;;;;15.29;63.35;100250.41;5086407;28;20410;-61
2022/04/23 04:00:22;;;;;;;8.23;6.10;;;;;;;15.32;63.20;100249.97;5082546;28;20425;-61
2022/04/23 04:02:51;;;;;;;9.40;6.63;;;;;;;15.34;62.88;100258.63;5045947;28;20935;-61
2022/04/23 04:05:18;;;;;;;8.45;6.32;;;;;;;15.38;63.31;100264.34;5045877;28;20929;-61
2022/04/23 04:07:47;;;;;;;10.10;9.00;;;;;;;15.42;62.98;100255.69;5045863;28;20501;-61
2022/04/23 04:10:17;;;;;;;10.25;9.25;;;;;;;15.41;62.91;100253.22;5045994;28;20433;-61
2022/04/23 04:12:44;;;;;;;8.77;7.63;;;;;;;15.53;62.47;100262.22;5045898;28;20413;-61
2022/04/23 04:15:12;;;;;;;9.35;7.50;;;;;;;15.53;62.48;100261.41;5045879;28;20968;-61
2022/04/23 04:17:41;;;;;;;10.05;7.63;;;;;;;15.47;62.66;100266.56;5045590;28;20417;-61
2022/04/23 04:20:12;;;;;;;10.93;9.77;;;;;;;15.51;62.73;100274.16;5045548;28;20449;-61
2022/04/23 04:22:39;;;;;;;8.52;6.43;;;;;;;15.53;62.65;100280.09;5031846;28;20903;-61
2022/04/23 04:25:07;;;;;;;8.43;5.18;;;;;;;15.59;62.35;100282.75;5032464;28;20415;-62
2022/04/23 04:27:34;;;;;;;6.68;4.72;;;;;;;15.21;63.40;100283.50;5032157;28;20444;-61
2022/04/23 04:30:02;;;;;;;7.60;5.22;;;;;;;15.27;63.66;100290.69;5032286;28;20469;-62
2022/04/23 04:32:29;;;;;;;8.05;4.95;;;;;;;15.39;63.22;100287.34;5032039;28;20414;-62
2022/04/23 04:34:56;;;;;;;6.70;4.90;;;;;;;15.45;63.31;100295.34;5032109;28;20450;-61
2022/04/23 04:37:25;;;;;;;7.40;4.73;;;;;;;15.46;63.33;100293.47;5031976;28;20420;-61
2022/04/23 04:39:52;;;;;;;6.30;4.60;;;;;;;15.39;63.40;100290.81;5032606;28;20450;-62
2022/04/23 04:43:29;;;;;;;6.88;5.15;;;;;;;15.48;63.33;100296.75;5118281;27;20398;-63
2022/04/23 04:45:56;;;;;;;6.63;4.90;;;;;;;15.46;62.84;100288.94;5086902;28;20904;-61
2022/04/23 04:48:24;;;;;;;8.10;5.10;;;;;;;15.40;63.20;100286.31;5087150;28;20482;-62
2022/04/23 04:50:51;;;;;;;8.30;5.20;;;;;;;15.46;62.78;100277.44;5086834;28;20984;-61
2022/04/23 04:53:18;;;;;;;7.13;4.75;;;;;;;15.54;62.04;100277.22;5087048;28;20485;-62
2022/04/23 04:55:45;;;;;;;7.32;5.07;;;;;;;15.57;62.57;100279.44;5086972;28;20418;-61
2022/04/23 04:58:12;;;;;;;6.53;5.32;;;;;;;15.63;62.34;100289.28;5086678;28;20911;-61
2022/04/23 05:00:40;;;;;;;7.03;5.15;;;;;;;15.61;62.42;100290.53;5086703;28;20468;-61
2022/04/23 05:03:07;;;;;;;7.35;5.38;;;;;;;15.63;62.19;100291.16;5086499;28;20430;-61
2022/04/23 05:05:34;;;;;;;9.15;5.60;;;;;;;15.63;62.19;100299.16;5086903;28;20499;-62
2022/04/23 05:08:01;;;;;;;10.13;7.05;;;;;;;15.61;62.33;100290.53;5086730;28;20432;-61
2022/04/23 05:10:28;;;;;;;10.90;7.85;;;;;;;15.58;62.69;100288.31;5086387;28;20449;-62
2022/04/23 05:12:55;;;;;;;23.05;11.98;;;;;;;15.66;62.41;100288.03;5086367;28;20451;-61
2022/04/23 05:15:22;;;;;;;18.92;11.43;;;;;;;15.67;62.15;100292.34;5086348;28;20472;-62
2022/04/23 05:17:50;;;;;;;32.22;16.55;;;;;;;15.67;62.33;100295.03;5086562;28;20865;-62
2022/04/23 05:20:17;;;;;;;19.30;10.82;;;;;;;15.66;62.35;100298.72;5086545;28;20513;-61
2022/04/23 05:22:44;;;;;;;22.42;11.68;;;;;;;15.71;62.42;100304.25;5086254;28;20935;-61
2022/04/23 05:25:11;;;;;;;47.20;22.83;;;;;;;15.67;62.61;100303.84;5086508;28;20483;-61
2022/04/23 05:27:38;;;;;;;45.40;21.52;;;;;;;15.67;62.38;100298.50;5086064;28;20950;-61
2022/04/23 05:30:06;;;;;;;30.33;15.57;;;;;;;15.74;62.22;100298.50;5085994;28;20996;-61
2022/04/23 05:32:33;;;;;;;21.25;11.07;;;;;;;15.76;61.93;100307.13;5086036;28;20410;-62
2022/04/23 05:35:02;;;;;;;26.00;13.73;;;;;;;15.79;62.01;100306.72;5086368;28;20429;-62
2022/04/23 05:37:29;;;;;;;15.75;8.88;;;;;;;15.89;61.34;100308.09;5085893;28;20904;-62
2022/04/23 05:39:56;;;;;;;20.05;10.82;;;;;;;15.97;61.13;100314.00;5086251;28;20550;-61
2022/04/23 05:42:23;;;;;;;11.93;7.80;;;;;;;16.02;61.43;100316.03;5086027;28;20465;-61
2022/04/23 05:44:50;;;;;;;14.57;9.30;;;;;;;16.18;60.60;100314.69;5085762;28;20408;-61
2022/04/23 05:47:16;;;;;;;11.25;7.70;;;;;;;16.24;60.96;100311.97;5086046;28;20495;-62
2022/04/23 05:50:32;;;;;;;11.02;7.35;;;;;;;16.55;60.44;100312.16;5118254;27;20398;-61
2022/04/23 05:52:59;;;;;;;10.73;6.93;;;;;;;17.29;58.11;100304.22;5087133;28;20414;-62
2022/04/23 05:55:26;;;;;;;10.35;6.65;;;;;;;17.33;57.52;100308.06;5086876;28;20414;-61
2022/04/23 05:57:53;;;;;;;8.52;6.07;;;;;;;17.28;57.42;100308.72;5086755;28;20406;-62
2022/04/23 06:00:21;;;;;;;8.05;5.88;;;;;;;17.26;57.67;100312.69;5086671;28;20943;-62
2022/04/23 06:02:48;;;;;;;7.97;5.13;;;;;;;17.20;57.60;100304.50;5087130;28;20445;-61
2022/04/23 06:05:15;;;;;;;10.07;5.10;;;;;;;17.05;57.87;100312.09;5086705;28;20417;-61
2022/04/23 06:07:43;;;;;;;9.05;3.70;;;;;;;17.20;57.00;100311.72;5086910;28;20417;-62
2022/04/23 06:10:11;;;;;;;9.02;4.47;;;;;;;17.25;56.90;100319.06;5086480;28;20496;-61
2022/04/23 06:12:38;;;;;;;5.93;3.83;;;;;;;17.59;56.26;100317.63;5086858;28;20414;-61
2022/04/23 06:15:06;;;;;;;5.87;3.50;;;;;;;18.33;55.05;100309.41;5086739;28;20441;-61
2022/04/23 06:17:33;;;;;;;7.97;3.42;;;;;;;19.16;52.71;100315.59;5086762;28;20417;-61
2022/04/23 06:20:01;;;;;;;6.65;3.35;;;;;;;19.56;51.62;100303.22;5086403;28;20450;-62
2022/04/23 06:22:28;;;;;;;7.93;3.53;;;;;;;18.54;53.73;100308.00;5086316;28;20417;-62
2022/04/23 06:24:56;;;;;;;5.38;3.45;;;;;;;18.75;53.20;100308.50;5086537;28;20468;-61
2022/04/23 06:27:23;;;;;;;6.57;3.90;;;;;;;18.65;53.09;100309.88;5086484;28;20431;-61
2022/04/23 06:29:50;;;;;;;6.10;2.97;;;;;;;18.46;53.21;100309.16;5086270;28;20462;-62
2022/04/23 06:32:18;;;;;;;6.10;3.28;;;;;;;18.44;53.30;100313.13;5086501;28;20411;-62
2022/04/23 06:34:44;;;;;;;20.08;13.65;;;;;;;18.27;53.85;100316.47;5086008;28;20855;-61
2022/04/23 06:37:12;;;;;;;8.45;6.10;;;;;;;18.24;54.16;100314.28;5086457;28;20394;-61
2022/04/23 06:39:38;;;;;;;8.27;4.15;;;;;;;18.15;54.27;100318.34;5086260;28;20441;-62
2022/04/23 06:42:08;;;;;;;6.63;4.30;;;;;;;18.01;54.85;100323.09;5086016;28;20420;-62
2022/04/23 06:44:35;;;;;;;9.00;6.50;;;;;;;17.96;55.27;100331.00;5085851;28;20414;-62
2022/04/23 06:47:02;;;;;;;8.77;6.20;;;;;;;17.84;55.78;100341.63;5086055;28;20489;-61
2022/04/23 06:51:38;;;;;;;9.43;5.35;;;;;;;17.64;56.32;100344.56;5118099;27;20402;-60
2022/04/23 06:54:05;;;;;;;9.52;6.80;;;;;;;17.64;56.54;100346.44;5087408;28;20414;-61
2022/04/23 06:56:32;;;;;;;8.00;5.35;;;;;;;17.55;56.63;100349.41;5086740;28;20931;-60
2022/04/23 06:59:00;;;;;;;9.13;5.70;;;;;;;17.56;56.47;100345.72;5086736;28;20804;-60
2022/04/23 07:01:27;;;;;;;7.32;4.85;;;;;;;17.54;56.57;100347.81;5087009;28;20485;-61
2022/04/23 07:03:54;;;;;;;8.07;6.25;;;;;;;17.49;57.20;100353.00;5087000;28;20418;-60
2022/04/23 07:06:21;;;;;;;11.00;5.63;;;;;;;17.55;57.02;100348.63;5086661;28;20450;-59
2022/04/23 07:08:50;;;;;;;8.00;4.90;;;;;;;17.54;56.77;100331.72;5086573;28;20501;-60
2022/04/23 07:11:17;;;;;;;6.32;3.97;;;;;;;17.54;56.34;100338.94;5086702;28;20437;-61
2022/04/23 07:13:43;;;;;;;9.68;5.57;;;;;;;17.57;56.46;100341.16;5086788;28;20409;-60
2022/04/23 07:16:12;;;;;;;17.20;12.32;;;;;;;17.71;56.31;100342.63;5086370;28;20860;-60
2022/04/23 07:18:40;;;;;;;7.38;5.30;;;;;;;17.91;55.62;100336.22;5086345;28;20418;-61
2022/04/23 07:21:07;;;;;;;7.35;5.10;;;;;;;18.21;55.13;100338.88;5086424;28;20418;-60
2022/04/23 07:26:20;;;;;;;35.05;18.63;;;;;;;19.27;52.05;100340.81;5086265;28;20409;-59
2022/04/23 07:28:47;;;;;;;13.85;9.43;;;;;;;19.44;51.44;100352.44;5086476;28;20519;-60
2022/04/23 07:31:14;;;;;;;10.45;6.43;;;;;;;19.56;50.82;100338.97;5068729;28;20475;-60
2022/04/23 07:39:10;;;;;;;11.95;6.47;;;;;;;19.82;49.19;100342.19;5045947;28;20428;-60
2022/04/23 07:41:38;;;;;;;8.30;5.20;;;;;;;19.81;49.58;100341.38;5046326;28;20509;-60
2022/04/23 07:44:05;;;;;;;62.00;43.95;;;;;;;19.95;49.67;100347.28;5045761;28;20441;-60
2022/04/23 07:46:32;;;;;;;28.98;19.75;;;;;;;19.95;49.68;100349.97;5045984;28;20418;-61
2022/04/23 07:48:59;;;;;;;121.50;60.05;;;;;;;20.08;49.27;100353.41;5045589;28;20507;-60
2022/04/23 07:51:28;;;;;;;19.27;10.63;;;;;;;20.18;49.02;100354.41;5045813;28;20469;-60
2022/04/23 07:53:55;;;;;;;7.15;4.47;;;;;;;20.65;47.76;100345.22;5045596;28;20822;-61
2022/04/23 07:56:22;;;;;;;7.53;3.53;;;;;;;20.97;47.04;100345.44;5045867;28;20495;-60
2022/04/23 07:58:50;;;;;;;8.85;4.25;;;;;;;21.22;46.81;100341.47;5045540;28;20441;-60
2022/04/23 08:01:17;;;;;;;7.97;4.38;;;;;;;21.48;46.35;100356.13;5041695;28;20417;-60
2022/04/23 08:03:44;;;;;;;6.70;3.53;;;;;;;21.65;45.31;100355.25;5032499;28;20479;-60
2022/04/23 08:06:13;;;;;;;9.23;3.60;;;;;;;21.52;46.25;100351.84;5032408;28;20446;-60
2022/04/23 08:08:42;;;;;;;5.88;2.60;;;;;;;21.72;44.93;100356.66;5032016;28;20815;-60
2022/04/23 08:11:10;;;;;;;7.18;2.60;;;;;;;22.00;43.75;100346.69;5032085;28;20525;-60
2022/04/23 08:13:37;;;;;;;9.00;3.00;;;;;;;21.96;44.60;100357.19;5032009;28;20453;-60
2022/04/23 08:16:06;;;;;;;7.32;2.40;;;;;;;22.05;44.83;100345.94;5031929;28;20410;-60
2022/04/23 08:18:33;;;;;;;7.00;3.03;;;;;;;22.31;44.61;100352.44;5031917;28;20434;-61
2022/04/23 08:21:00;;;;;;;7.90;3.35;;;;;;;22.61;43.34;100334.81;5032228;28;20457;-60
2022/04/23 08:23:27;;;;;;;10.57;5.28;;;;;;;22.62;42.29;100348.06;5031791;28;20472;-62
2022/04/23 08:25:56;;;;;;;7.10;2.10;;;;;;;22.62;41.86;100333.75;5032045;28;20418;-61
2022/04/23 08:31:09;;;;;;;6.67;1.50;;;;;;;22.61;41.72;100330.22;5031668;28;20496;-61
2022/04/23 08:36:20;;;;;;;7.30;2.20;;;;;;;23.01;41.24;100336.13;5031585;28;20416;-61
2022/04/23 08:38:49;;;;;;;12.88;3.00;;;;;;;23.01;41.30;100331.56;5031509;28;20936;-61
2022/04/23 08:41:16;;;;;;;4.78;1.70;;;;;;;23.17;40.18;100327.06;5031798;28;20414;-61
2022/04/23 08:43:42;;;;;;;11.80;2.30;;;;;;;23.27;40.60;100321.69;5031746;28;20421;-61
2022/04/23 08:46:12;;;;;;;3.78;1.20;;;;;;;22.99;39.07;100319.38;5031358;28;20445;-61
2022/04/23 08:48:40;;;;;;;5.07;1.60;;;;;;;23.41;38.98;100326.66;5031633;28;20410;-60
2022/04/23 08:51:13;;;;;;;5.20;1.50;;;;;;;23.46;39.73;100316.66;5030970;28;20488;-61
2022/04/23 08:53:41;;;;;;;4.47;1.15;;;;;;;23.54;39.19;100323.44;5031210;28;20421;-61
2022/04/23 08:56:10;;;;;;;5.47;1.80;;;;;;;23.99;38.84;100321.94;5031575;28;20434;-61
2022/04/23 08:58:39;;;;;;;4.60;1.30;;;;;;;24.34;38.08;100316.78;5031164;28;20891;-61
2022/04/23 09:01:06;;;;;;;6.15;1.58;;;;;;;24.41;36.88;100320.84;5031106;28;20422;-61
2022/04/23 09:03:34;;;;;;;3.83;1.27;;;;;;;24.23;35.40;100318.69;5031090;28;20442;-61
2022/04/23 09:06:02;;;;;;;3.28;1.23;;;;;;;24.30;34.77;100313.00;5031697;28;20430;-61
2022/04/23 09:08:29;;;;;;;2.55;1.27;;;;;;;24.41;34.69;100307.28;5030918;28;20443;-60
2022/04/23 09:10:56;;;;;;;5.68;1.40;;;;;;;24.01;34.52;100317.06;5030823;28;20437;-60
2022/04/23 09:13:27;;;;;;;8.43;1.70;;;;;;;23.95;35.24;100309.19;5029867;28;20414;-61
2022/04/23 09:24:45;;;;;;;6.20;1.75;;;;;;;24.09;35.76;100315.69;5030735;28;20812;-61
2022/04/23 09:27:12;;;;;;;6.30;1.50;;;;;;;24.25;34.64;100313.81;5030582;28;20941;-61
2022/04/23 09:29:40;;;;;;;5.47;1.58;;;;;;;24.33;33.99;100309.75;5030856;28;20938;-61
2022/04/23 09:32:13;;;;;;;4.70;1.50;;;;;;;24.45;33.90;100309.47;5030476;28;20430;-61
2022/04/23 09:34:41;;;;;;;4.43;1.50;;;;;;;24.34;33.90;100297.81;5030806;28;20476;-61
2022/04/23 09:37:09;;;;;;;3.42;1.27;;;;;;;24.22;34.03;100303.53;5030807;28;20410;-61
2022/04/23 09:39:38;;;;;;;4.80;1.43;;;;;;;24.26;34.44;100303.81;5030665;28;20419;-61
2022/04/23 09:42:17;;;;;;;3.50;1.40;;;;;;;24.38;33.84;100297.03;5030373;28;20418;-61
2022/04/23 09:44:45;;;;;;;3.85;2.17;;;;;;;24.29;33.64;100305.94;5030250;28;20792;-62
2022/04/23 09:47:28;;;;;;;3.92;1.30;;;;;;;24.17;34.17;100298.91;5030183;28;20417;-62
2022/04/23 09:49:56;;;;;;;5.55;1.75;;;;;;;24.02;34.54;100301.59;5029950;28;20423;-61
2022/04/23 09:52:28;;;;;;;3.97;1.10;;;;;;;23.61;34.81;100315.06;5030052;28;20445;-61
2022/04/23 09:54:57;;;;;;;2.20;1.10;;;;;;;23.57;35.10;100313.94;5030414;28;20421;-61
2022/04/23 09:57:25;;;;;;;4.00;1.33;;;;;;;23.56;35.43;100313.16;5030035;28;20414;-61
2022/04/23 09:59:52;;;;;;;5.88;1.65;;;;;;;23.74;35.00;100316.44;5029945;28;20422;-61
2022/04/23 10:02:20;;;;;;;6.75;2.03;;;;;;;23.76;34.99;100319.69;5029970;28;20418;-62
2022/04/23 10:04:47;;;;;;;6.30;2.00;;;;;;;23.78;34.97;100326.44;5029807;28;20958;-61
2022/04/23 10:07:18;;;;;;;7.20;1.90;;;;;;;23.53;35.86;100337.22;5030284;28;20450;-61
2022/04/23 10:09:48;;;;;;;5.85;1.30;;;;;;;22.91;38.74;100350.44;5029846;28;20857;-61
2022/04/23 10:12:19;;;;;;;3.38;1.13;;;;;;;22.12;39.29;100374.34;5029707;28;20444;-61
2022/04/23 10:14:51;;;;;;;5.30;1.20;;;;;;;21.73;40.92;100374.50;5030127;28;20468;-60
2022/04/23 10:17:20;;;;;;;1.77;0.73;;;;;;;21.06;41.37;100351.22;5029764;28;20422;-61
2022/04/23 10:19:48;;;;;;;5.00;1.30;;;;;;;21.06;43.81;100364.69;5030128;28;20410;-60
2022/04/23 10:22:21;;;;;;;2.85;1.00;;;;;;;20.83;43.12;100346.03;5029659;28;20414;-61
2022/04/23 10:24:59;;;;;;;2.05;1.30;;;;;;;20.56;45.27;100349.38;5029410;28;20429;-61
2022/04/23 10:27:27;;;;;;;3.95;1.60;;;;;;;20.98;45.92;100357.06;5029817;28;20453;-61
2022/04/23 10:29:56;;;;;;;2.95;1.35;;;;;;;20.98;44.41;100357.84;5029499;28;20414;-61
2022/04/23 10:32:24;;;;;;;2.75;1.70;;;;;;;21.12;45.64;100352.94;5029500;28;20426;-61
2022/04/23 10:34:51;;;;;;;5.90;2.13;;;;;;;21.26;45.08;100358.75;5029552;28;20496;-61
2022/04/23 10:37:22;;;;;;;4.35;2.10;;;;;;;21.20;43.60;100347.09;5029426;28;20414;-61
2022/04/23 10:40:14;;;;;;;3.45;1.63;;;;;;;21.12;43.36;100347.56;5029512;28;20505;-61
2022/04/23 10:43:08;;;;;;;2.05;1.10;;;;;;;21.37;44.59;100354.31;5024096;28;20414;-61
2022/04/23 10:45:36;;;;;;;11.15;4.32;;;;;;;21.34;43.92;100350.25;5029382;28;20916;-61
2022/04/23 10:48:26;;;;;;;6.13;2.85;;;;;;;21.36;44.24;100350.00;5029356;28;20931;-61
2022/04/23 10:51:04;;;;;;;1.48;0.80;;;;;;;21.43;42.66;100345.25;5029437;28;20434;-61
2022/04/23 10:53:50;;;;;;;1.75;0.77;;;;;;;21.77;42.07;100343.22;5029289;28;21024;-61
2022/04/23 10:56:19;;;;;;;2.40;0.63;;;;;;;21.82;39.91;100345.16;5029574;28;20464;-60
2022/04/23 10:58:46;;;;;;;6.45;0.80;;;;;;;21.94;39.59;100340.44;5029613;28;20469;-61
2022/04/23 11:01:21;;;;;;;3.17;0.70;;;;;;;21.93;38.89;100337.97;5029572;28;20414;-61
2022/04/23 11:03:59;;;;;;;3.70;1.00;;;;;;;21.87;39.99;100336.31;5029209;28;20410;-61
2022/04/23 11:12:37;;;;;;;5.57;1.60;;;;;;;22.09;42.50;100334.38;4987708;28;20546;-60
2022/04/23 11:15:15;;;;;;;4.07;0.90;;;;;;;22.12;42.08;100341.94;4987647;28;20413;-61
2022/04/23 11:17:56;;;;;;;6.83;1.53;;;;;;;22.23;42.70;100333.94;5016576;28;20505;-61
2022/04/23 11:20:32;;;;;;;5.65;1.40;;;;;;;22.07;43.90;100333.00;5029357;28;20410;-60
2022/04/23 11:23:00;;;;;;;3.10;1.02;;;;;;;22.01;42.28;100328.63;5029088;28;20410;-60
2022/04/23 11:25:30;;;;;;;2.87;1.20;;;;;;;22.19;41.81;100338.25;5029378;28;20422;-61
2022/04/23 11:28:01;;;;;;;4.43;1.35;;;;;;;22.21;42.55;100326.09;5029042;28;20415;-60
2022/04/23 11:30:31;;;;;;;6.07;1.50;;;;;;;22.02;42.97;100336.47;5028988;28;20418;-61
2022/04/23 11:33:12;;;;;;;5.05;1.40;;;;;;;22.12;42.08;100333.84;5028960;28;20468;-61
2022/04/23 11:35:39;;;;;;;7.80;1.52;;;;;;;22.33;42.60;100328.69;5028895;28;20966;-61
2022/04/23 11:38:07;;;;;;;9.63;2.22;;;;;;;22.43;42.06;100326.03;5032435;28;20416;-60
2022/04/23 11:40:38;;;;;;;6.68;1.60;;;;;;;22.61;41.07;100332.13;5032864;28;20418;-61
2022/04/23 11:43:05;;;;;;;4.93;1.30;;;;;;;22.48;40.58;100330.69;5032585;28;20418;-61
2022/04/23 11:45:47;;;;;;;6.33;1.43;;;;;;;22.44;40.57;100326.88;5032590;28;20420;-61
2022/04/23 11:48:14;;;;;;;4.50;1.35;;;;;;;22.56;40.40;100332.88;5032527;28;20421;-61
2022/04/23 11:50:41;;;;;;;4.40;1.35;;;;;;;22.53;40.40;100333.41;5032868;28;20449;-62
2022/04/23 11:53:09;;;;;;;6.10;2.72;;;;;;;22.39;40.83;100324.94;5032709;28;20450;-61
2022/04/23 11:55:36;;;;;;;4.20;1.63;;;;;;;22.68;40.10;100324.59;5032945;28;20464;-61
2022/04/23 11:58:06;;;;;;;4.97;1.10;;;;;;;22.65;39.87;100325.94;5032658;28;20421;-61
2022/04/23 12:00:34;;;;;;;3.92;1.25;;;;;;;22.72;40.22;100325.69;5032559;28;20468;-61
2022/04/23 12:03:02;;;;;;;3.13;1.00;;;;;;;22.69;39.86;100312.72;5032173;28;20414;-61
2022/04/23 12:05:30;;;;;;;3.40;1.00;;;;;;;22.75;39.45;100317.09;5032200;28;20920;-61
2022/04/23 12:07:58;;;;;;;3.33;1.35;;;;;;;22.91;38.80;100320.69;5032678;28;20410;-60
2022/04/23 12:10:26;;;;;;;5.00;1.20;;;;;;;22.81;38.14;100312.50;5032501;28;20505;-61
2022/04/23 12:12:53;;;;;;;4.30;1.30;;;;;;;22.95;37.71;100310.97;5032275;28;20513;-60
2022/04/23 12:15:22;;;;;;;8.07;1.50;;;;;;;22.97;37.80;100302.59;5032332;28;20919;-61
2022/04/23 12:17:50;;;;;;;5.50;1.42;;;;;;;22.83;38.23;100313.06;5032027;28;20414;-61
2022/04/23 12:20:19;;;;;;;6.90;1.77;;;;;;;22.94;38.62;100313.94;5031951;28;20499;-61
2022/04/23 12:22:58;;;;;;;4.95;2.20;;;;;;;23.08;38.14;100301.59;5031863;28;20426;-62